Time;durP1;ratioP1;P1;durP2;ratioP2;P2;SDS_P1;SDS_P2;PMS_P1;PMS_P2;Temp;Humidity;BMP_temperature;BMP_pressure;BME280_temperature;BME280_humidity;BME280_pressure;Samples;Min_cycle;Max_cycle;Signal;HPM_P1;HPM_P2
2023/10/09 00:01:17;;;;;;;0.30;0.30;;;;;;;13.90;100.00;100731.25;5083638;28;20113;-61
2023/10/09 00:03:51;;;;;;;0.30;0.30;;;;;;;13.90;100.00;100730.38;5083310;28;20020;-60
2023/10/09 00:06:23;;;;;;;0.40;0.40;;;;;;;13.91;100.00;100732.13;5088090;28;20032;-60
2023/10/09 00:08:53;;;;;;;0.40;0.40;;;;;;;13.76;100.00;100727.28;5071087;28;20024;-60
2023/10/09 00:11:19;;;;;;;0.30;0.30;;;;;;;13.69;100.00;100725.78;5070520;28;20104;-60
2023/10/09 00:13:51;;;;;;;0.30;0.30;;;;;;;13.63;100.00;100723.28;5067934;28;20031;-60
2023/10/09 00:16:46;;;;;;;0.40;0.40;;;;;;;13.61;100.00;100717.13;5070151;28;20029;-60
2023/10/09 00:21:41;;;;;;;0.35;0.35;;;;;;;13.72;100.00;100720.31;5083825;28;20024;-61
2023/10/09 00:24:13;;;;;;;0.30;0.30;;;;;;;13.73;100.00;100719.38;5087307;28;20036;-61
2023/10/09 00:26:45;;;;;;;0.30;0.30;;;;;;;13.72;100.00;100720.31;5085106;28;20095;-61
2023/10/09 00:29:21;;;;;;;0.30;0.30;;;;;;;13.66;100.00;100704.47;5082822;28;20078;-61
2023/10/09 00:32:03;;;;;;;0.30;0.30;;;;;;;13.69;100.00;100713.25;5086394;28;20156;-61
2023/10/09 00:34:28;;;;;;;0.30;0.30;;;;;;;13.70;100.00;100716.81;5074713;28;20135;-60
2023/10/09 00:36:55;;;;;;;0.30;0.30;;;;;;;13.73;100.00;100716.72;5086180;28;20111;-60
2023/10/09 00:42:03;;;;;;;0.30;0.30;;;;;;;13.70;100.00;100709.69;5083873;28;20036;-60
2023/10/09 00:44:37;;;;;;;0.40;0.40;;;;;;;13.72;100.00;100717.66;5086907;28;20020;-61
2023/10/09 00:47:10;;;;;;;0.30;0.30;;;;;;;13.72;100.00;100725.66;5087837;28;20032;-60
2023/10/09 00:49:41;;;;;;;0.38;0.38;;;;;;;13.68;100.00;100724.91;5086945;28;20028;-61
2023/10/09 00:52:17;;;;;;;0.30;0.30;;;;;;;13.64;100.00;100722.38;5077913;28;20116;-61
2023/10/09 00:54:44;;;;;;;0.30;0.30;;;;;;;13.64;100.00;100725.06;5071292;28;20031;-60
2023/10/09 00:57:13;;;;;;;0.30;0.30;;;;;;;13.54;100.00;100700.41;5079715;28;20043;-60
2023/10/09 00:59:43;;;;;;;0.30;0.30;;;;;;;13.55;100.00;100706.63;5054880;28;20854;-60
2023/10/09 01:02:09;;;;;;;0.32;0.32;;;;;;;13.53;100.00;100697.78;5082455;28;20020;-60
2023/10/09 01:04:43;;;;;;;0.40;0.40;;;;;;;13.59;100.00;100710.97;5071287;28;20039;-61
2023/10/09 01:07:14;;;;;;;0.40;0.40;;;;;;;13.57;100.00;100708.34;5070860;28;20071;-60
2023/10/09 01:09:43;;;;;;;0.30;0.30;;;;;;;13.59;100.00;100698.47;5077388;28;20028;-60
2023/10/09 01:12:16;;;;;;;0.30;0.30;;;;;;;13.64;100.00;100692.97;5090903;28;20036;-60
2023/10/09 01:14:46;;;;;;;0.40;0.40;;;;;;;13.66;100.00;100693.78;5087272;28;20115;-60
2023/10/09 01:17:13;;;;;;;0.30;0.30;;;;;;;13.68;100.00;100692.81;5070788;28;20040;-61
2023/10/09 01:19:38;;;;;;;0.35;0.35;;;;;;;13.66;100.00;100693.78;5089714;28;20091;-60
2023/10/09 01:22:13;;;;;;;0.30;0.30;;;;;;;13.46;100.00;100656.19;5076044;28;20486;-60
2023/10/09 01:24:41;;;;;;;0.40;0.40;;;;;;;13.65;100.00;100686.69;5069384;28;20024;-61
2023/10/09 01:27:16;;;;;;;0.30;0.30;;;;;;;13.68;100.00;100686.56;5071510;28;20090;-60
2023/10/09 01:29:43;;;;;;;0.30;0.30;;;;;;;13.66;100.00;100685.75;5076938;28;20800;-60
2023/10/09 01:32:21;;;;;;;0.30;0.30;;;;;;;13.65;100.00;100681.34;5089609;28;20024;-61
2023/10/09 01:34:50;;;;;;;0.30;0.30;;;;;;;13.65;100.00;100681.34;5084523;28;20114;-60
2023/10/09 01:37:38;;;;;;;0.40;0.40;;;;;;;13.65;100.00;100673.31;5069925;28;20028;-61
2023/10/09 01:42:47;;;;;;;0.35;0.35;;;;;;;13.56;100.00;100676.34;5076420;28;20119;-60
2023/10/09 01:47:51;;;;;;;0.30;0.30;;;;;;;13.49;100.00;100669.44;5089308;28;20119;-60
2023/10/09 01:50:22;;;;;;;0.30;0.30;;;;;;;13.43;100.00;100658.94;5089613;28;20077;-60
2023/10/09 01:52:48;;;;;;;0.40;0.40;;;;;;;13.44;100.00;100666.03;5087263;28;20285;-60
2023/10/09 01:55:27;;;;;;;0.40;0.40;;;;;;;13.44;100.00;100666.03;5085513;28;20032;-60
2023/10/09 01:57:52;;;;;;;0.30;0.30;;;;;;;13.46;100.00;100670.41;5090165;28;20028;-60
2023/10/09 02:00:23;;;;;;;0.40;0.40;;;;;;;13.37;100.00;100670.72;5086582;28;20406;-61
2023/10/09 02:02:50;;;;;;;0.40;0.40;;;;;;;13.26;100.00;100675.56;5080334;28;20047;-61
2023/10/09 02:07:51;;;;;;;0.40;0.40;;;;;;;13.23;100.00;100667.63;5083180;28;20741;-60
2023/10/09 02:13:10;;;;;;;0.30;0.30;;;;;;;13.34;100.00;100669.94;5090051;28;20032;-61
2023/10/09 02:26:17;;;;;;;;;;;;;;;13.26;100.00;100651.53;5084611;28;20767;-61
2023/10/09 02:28:43;;;;;;;0.40;0.40;;;;;;;13.25;100.00;100655.09;5087279;28;19912;-61
2023/10/09 02:31:13;;;;;;;0.40;0.40;;;;;;;13.24;100.00;100664.91;5087953;28;20495;-61
2023/10/09 02:33:41;;;;;;;0.35;0.35;;;;;;;13.21;100.00;100665.00;5084976;28;20020;-61
2023/10/09 02:36:07;;;;;;;0.40;0.40;;;;;;;13.23;100.00;100664.94;5088882;28;20048;-61
2023/10/09 02:38:38;;;;;;;0.40;0.40;;;;;;;13.21;100.00;100670.34;5088148;28;20020;-61
2023/10/09 02:43:46;;;;;;;0.40;0.40;;;;;;;13.20;100.00;100663.28;5089816;28;20024;-61
2023/10/09 02:46:29;;;;;;;0.40;0.40;;;;;;;13.23;100.00;100666.78;5089696;28;20032;-61
2023/10/09 02:48:56;;;;;;;0.40;0.40;;;;;;;13.24;100.00;100658.69;5087622;28;20027;-61
2023/10/09 02:54:35;;;;;;;0.40;0.40;;;;;;;13.31;100.00;100646.00;5088661;28;20063;-61
2023/10/09 02:57:07;;;;;;;0.30;0.30;;;;;;;13.34;100.00;100648.56;5078229;28;20048;-61
2023/10/09 02:59:38;;;;;;;0.40;0.40;;;;;;;13.42;100.00;100638.50;5072001;28;20035;-61
2023/10/09 03:02:04;;;;;;;0.30;0.30;;;;;;;13.49;100.00;100632.03;5088655;28;20036;-61
2023/10/09 03:04:29;;;;;;;0.40;0.40;;;;;;;13.54;100.00;100633.59;5069252;28;20082;-61
2023/10/09 03:06:57;;;;;;;0.30;0.30;;;;;;;13.66;100.00;100640.31;5086319;28;20035;-61
2023/10/09 03:09:28;;;;;;;0.40;0.40;;;;;;;13.73;100.00;100641.84;5088288;28;20024;-61
2023/10/09 03:12:00;;;;;;;0.40;0.40;;;;;;;13.80;100.00;100632.69;5083573;28;20044;-61
2023/10/09 03:14:31;;;;;;;0.30;0.30;;;;;;;13.86;100.00;100629.78;5067306;28;20037;-62
2023/10/09 03:16:58;;;;;;;0.40;0.40;;;;;;;13.90;100.00;100628.75;5076789;28;20035;-61
2023/10/09 03:19:31;;;;;;;0.35;0.35;;;;;;;13.99;100.00;100639.09;5087376;28;20040;-61
2023/10/09 03:22:00;;;;;;;0.40;0.40;;;;;;;14.03;100.00;100630.06;5077564;28;20070;-61
2023/10/09 03:24:27;;;;;;;0.30;0.30;;;;;;;14.09;100.00;100640.50;5086361;28;20107;-61
2023/10/09 03:26:55;;;;;;;0.30;0.30;;;;;;;14.15;100.00;100624.25;5086635;28;20024;-61
2023/10/09 03:29:21;;;;;;;0.30;0.30;;;;;;;14.18;100.00;100624.13;5086883;28;20024;-61
2023/10/09 03:31:47;;;;;;;0.30;0.30;;;;;;;14.21;100.00;100629.38;5071817;28;20032;-60
2023/10/09 03:34:12;;;;;;;0.30;0.30;;;;;;;14.23;100.00;100627.50;5069335;28;20039;-60
2023/10/09 03:36:38;;;;;;;0.30;0.30;;;;;;;14.26;100.00;100624.75;5078684;28;20016;-60
2023/10/09 03:41:51;;;;;;;0.30;0.30;;;;;;;14.30;100.00;100615.66;5085224;28;20050;-60
2023/10/09 03:44:18;;;;;;;0.30;0.30;;;;;;;14.30;100.00;100616.53;5068766;28;20410;-60
2023/10/09 03:46:46;;;;;;;0.30;0.30;;;;;;;14.31;100.00;100614.75;5078990;28;20077;-60
2023/10/09 03:49:16;;;;;;;0.40;0.40;;;;;;;14.28;100.00;100614.88;5070212;28;20526;-60
2023/10/09 03:51:42;;;;;;;0.30;0.30;;;;;;;14.32;100.00;100614.69;5085597;28;20099;-61
2023/10/09 03:54:08;;;;;;;0.30;0.30;;;;;;;14.33;100.00;100615.56;5081333;28;20040;-60
2023/10/09 03:56:34;;;;;;;0.30;0.30;;;;;;;14.36;100.00;100618.13;5087933;28;20598;-61
2023/10/09 03:59:01;;;;;;;0.30;0.30;;;;;;;14.36;100.00;100618.13;5087994;28;20491;-61
2023/10/09 04:04:00;;;;;;;0.30;0.30;;;;;;;14.41;100.00;100624.16;5075552;28;20045;-60
2023/10/09 04:06:30;;;;;;;0.30;0.30;;;;;;;14.42;100.00;100618.75;5081710;28;20030;-61
2023/10/09 04:08:58;;;;;;;0.40;0.40;;;;;;;14.46;100.00;100635.56;5083542;28;20032;-61
2023/10/09 04:11:24;;;;;;;0.30;0.30;;;;;;;14.45;99.72;100618.63;5084224;28;20032;-61
2023/10/09 04:13:52;;;;;;;0.30;0.30;;;;;;;14.46;100.00;100624.88;5083443;28;20798;-60
2023/10/09 04:18:59;;;;;;;0.30;0.30;;;;;;;14.42;98.47;100609.84;5068016;28;20695;-61
2023/10/09 04:21:35;;;;;;;0.40;0.40;;;;;;;14.47;99.07;100626.59;5069763;28;20107;-61
2023/10/09 04:26:47;;;;;;;0.30;0.30;;;;;;;14.47;97.65;100623.91;5078695;28;20036;-61
2023/10/09 04:29:26;;;;;;;0.30;0.30;;;;;;;14.46;98.24;100616.84;5082516;28;20027;-61
2023/10/09 04:31:56;;;;;;;0.40;0.40;;;;;;;14.53;97.44;100621.00;5082484;28;20085;-61
2023/10/09 04:34:34;;;;;;;0.30;0.30;;;;;;;14.55;97.24;100611.09;5082665;28;20139;-61
2023/10/09 04:37:00;;;;;;;0.30;0.30;;;;;;;14.58;96.29;100613.66;5080780;28;20059;-61
2023/10/09 04:42:19;;;;;;;0.40;0.40;;;;;;;14.60;96.22;100618.94;5068316;28;20153;-60
2023/10/09 04:47:35;;;;;;;0.30;0.30;;;;;;;14.67;95.04;100621.34;5080115;28;20118;-60
2023/10/09 04:55:19;;;;;;;0.30;0.30;;;;;;;14.81;93.88;100645.75;5085763;28;20060;-61
2023/10/09 04:58:00;;;;;;;0.30;0.30;;;;;;;14.81;93.75;100637.72;5081193;28;20106;-60
2023/10/09 05:02:54;;;;;;;0.30;0.30;;;;;;;14.81;93.91;100636.88;5083275;28;20036;-60
2023/10/09 05:08:21;;;;;;;0.30;0.30;;;;;;;14.80;94.13;100652.06;5084539;28;20028;-60
2023/10/09 05:13:42;;;;;;;0.30;0.30;;;;;;;14.86;94.65;100650.94;5064709;28;20033;-61
2023/10/09 05:16:18;;;;;;;0.30;0.30;;;;;;;14.88;93.67;100654.41;5070022;28;20507;-60
2023/10/09 05:18:56;;;;;;;0.40;0.40;;;;;;;14.87;94.40;100653.56;5084011;28;20029;-61
2023/10/09 05:27:12;;;;;;;0.30;0.30;;;;;;;14.92;93.32;100654.25;5076189;28;20044;-60
2023/10/09 05:29:49;;;;;;;0.30;0.30;;;;;;;14.95;92.68;100655.91;5083056;28;20043;-60
2023/10/09 05:37:33;;;;;;;0.20;0.20;;;;;;;14.97;92.16;100676.38;5076143;28;20736;-60
2023/10/09 05:48:05;;;;;;;0.30;0.30;;;;;;;15.04;91.70;100682.38;5069641;28;20434;-61
2023/10/09 05:50:34;;;;;;;0.30;0.30;;;;;;;15.07;92.65;100674.19;5074585;28;20025;-61
2023/10/09 05:53:06;;;;;;;0.30;0.30;;;;;;;15.10;92.01;100677.63;5076067;28;20028;-61
2023/10/09 06:04:18;;;;;;;0.30;0.30;;;;;;;15.31;92.43;100692.81;5069013;28;20054;-61
2023/10/09 06:06:44;;;;;;;0.30;0.30;;;;;;;15.35;91.83;100699.78;5065211;28;20040;-61
2023/10/09 06:11:49;;;;;;;0.30;0.30;;;;;;;15.42;91.09;100701.31;5068837;28;20056;-61
2023/10/09 06:19:27;;;;;;;0.20;0.20;;;;;;;15.54;88.97;100706.19;5085769;28;20032;-60
2023/10/09 06:27:38;;;;;;;0.38;0.38;;;;;;;15.50;89.22;100691.16;5069357;28;20060;-61
2023/10/09 06:32:57;;;;;;;0.30;0.30;;;;;;;15.55;88.45;100691.81;5082568;28;20036;-61
2023/10/09 06:35:30;;;;;;;0.30;0.30;;;;;;;15.59;88.89;100693.47;5069549;28;20445;-61
2023/10/09 06:43:26;;;;;;;;;;;;;;;15.87;87.62;100692.25;5089437;28;20047;-61
2023/10/09 06:46:27;;;;;;;0.30;0.30;;;;;;;15.99;87.12;100697.09;5083749;28;20370;-61
2023/10/09 06:48:44;;;;;;;0.30;0.30;;;;;;;16.11;86.83;100701.94;5073895;28;20048;-61
2023/10/09 06:58:58;;;;;;;0.30;0.30;;;;;;;16.60;85.99;100707.75;5068329;28;20102;-61
2023/10/09 07:03:54;;;;;;;0.25;0.25;;;;;;;16.96;84.45;100705.16;5071836;28;20032;-61
2023/10/09 07:06:23;;;;;;;0.22;0.22;;;;;;;17.02;82.92;100696.78;5073632;28;20711;-60
2023/10/09 07:17:01;;;;;;;0.30;0.30;;;;;;;17.64;79.67;100697.31;5069178;28;20066;-61
2023/10/09 07:22:02;;;;;;;0.20;0.20;;;;;;;17.84;78.93;100697.13;5087272;28;20371;-61
2023/10/09 07:24:42;;;;;;;0.30;0.30;;;;;;;17.99;78.99;100701.72;5087527;28;20031;-61
2023/10/09 07:27:17;;;;;;;0.20;0.20;;;;;;;18.19;77.91;100714.13;5088791;28;20118;-61
2023/10/09 07:29:49;;;;;;;0.22;0.22;;;;;;;18.57;76.54;100709.44;5071329;28;20434;-61
2023/10/09 07:32:20;;;;;;;0.20;0.20;;;;;;;19.52;74.67;100715.72;5068523;28;20392;-61
2023/10/09 07:34:53;;;;;;;0.20;0.20;;;;;;;20.88;68.01;100719.91;5079777;28;20032;-61
2023/10/09 07:37:22;;;;;;;0.20;0.20;;;;;;;22.32;62.28;100715.66;5088706;28;20448;-61
2023/10/09 07:39:57;;;;;;;0.20;0.20;;;;;;;23.18;58.17;100723.88;5085882;28;20809;-61
2023/10/09 07:42:52;;;;;;;0.20;0.20;;;;;;;23.82;53.52;100730.88;5083399;28;20028;-61
2023/10/09 07:48:00;;;;;;;0.20;0.20;;;;;;;24.48;53.37;100731.13;5072253;28;20063;-61
2023/10/09 07:50:40;;;;;;;0.10;0.10;;;;;;;24.78;52.58;100739.59;5083276;28;20524;-61
2023/10/09 07:53:25;;;;;;;0.20;0.20;;;;;;;25.18;50.83;100738.13;5083241;28;20028;-61
2023/10/09 07:55:55;;;;;;;0.10;0.10;;;;;;;25.85;49.22;100738.88;5084671;28;20081;-61
2023/10/09 07:58:25;;;;;;;0.10;0.10;;;;;;;26.46;46.83;100745.44;5079428;28;20024;-61
2023/10/09 08:01:07;;;;;;;0.10;0.10;;;;;;;26.55;45.47;100744.66;5063699;28;20034;-61
2023/10/09 08:03:36;;;;;;;0.10;0.10;;;;;;;26.33;46.46;100733.88;5070791;28;20032;-61
2023/10/09 08:09:47;;;;;;;0.10;0.10;;;;;;;25.12;47.99;100732.31;5072723;28;20788;-61
2023/10/09 08:16:48;;;;;;;0.10;0.10;;;;;;;23.53;55.28;100729.44;5070736;28;20044;-61
2023/10/09 08:22:17;;;;;;;0.10;0.10;;;;;;;24.01;54.37;100725.78;5063878;28;20038;-60
2023/10/09 08:24:43;;;;;;;0.10;0.10;;;;;;;24.25;55.16;100729.34;5067840;28;20044;-61
2023/10/09 08:30:12;;;;;;;0.10;0.10;;;;;;;24.26;54.41;100725.63;5072055;28;20426;-61
2023/10/09 08:32:38;;;;;;;0.10;0.10;;;;;;;24.24;53.68;100728.47;5067697;28;20035;-61
2023/10/09 08:35:19;;;;;;;0.10;0.10;;;;;;;24.27;53.71;100738.22;5066789;28;20127;-61
2023/10/09 08:37:48;;;;;;;0.10;0.10;;;;;;;24.38;54.83;100738.28;5068935;28;20028;-61
2023/10/09 08:40:18;;;;;;;0.10;0.10;;;;;;;24.34;53.31;100732.22;5066846;28;20036;-60
2023/10/09 08:42:52;;;;;;;0.10;0.10;;;;;;;24.29;51.58;100728.09;5069645;28;20086;-60
2023/10/09 08:45:24;;;;;;;0.10;0.10;;;;;;;24.22;50.87;100729.56;5071672;28;20048;-61
2023/10/09 08:47:54;;;;;;;0.10;0.10;;;;;;;24.18;51.44;100722.63;5068439;28;20127;-61
2023/10/09 08:50:21;;;;;;;0.10;0.10;;;;;;;24.51;53.03;100733.59;5086020;28;20089;-60
2023/10/09 08:52:49;;;;;;;0.10;0.10;;;;;;;24.99;52.83;100732.44;5082135;28;20484;-61
2023/10/09 08:55:17;;;;;;;0.10;0.10;;;;;;;25.33;52.36;100736.88;5082897;28;20047;-61
2023/10/09 08:57:46;;;;;;;0.10;0.10;;;;;;;25.48;51.60;100727.50;5086193;28;20073;-61
2023/10/09 09:00:23;;;;;;;0.10;0.10;;;;;;;25.79;51.65;100733.97;5068384;28;20029;-61
2023/10/09 09:02:53;;;;;;;0.10;0.10;;;;;;;25.98;50.29;100731.41;5065966;28;20791;-61
2023/10/09 09:05:24;;;;;;;0.10;0.10;;;;;;;26.10;50.47;100729.53;5071098;28;20020;-60
2023/10/09 09:07:56;;;;;;;0.10;0.10;;;;;;;26.79;48.69;100734.34;5076446;28;20514;-60
2023/10/09 09:10:34;;;;;;;0.00;0.00;;;;;;;27.15;47.22;100739.25;5066534;28;20039;-61
2023/10/09 09:13:03;;;;;;;0.00;0.00;;;;;;;27.17;47.60;100740.00;5077726;28;20475;-60
2023/10/09 09:15:30;;;;;;;0.00;0.00;;;;;;;27.10;46.22;100741.53;5077674;28;20032;-60
2023/10/09 09:18:06;;;;;;;0.10;0.10;;;;;;;27.24;46.83;100743.91;5067155;28;20058;-60
2023/10/09 09:20:39;;;;;;;0.00;0.00;;;;;;;27.41;46.30;100740.56;5069706;28;20485;-60
2023/10/09 09:23:12;;;;;;;0.05;0.05;;;;;;;27.79;45.77;100735.16;5067084;28;20548;-61
2023/10/09 09:25:47;;;;;;;0.00;0.00;;;;;;;27.80;43.86;100733.28;5072833;28;20021;-60
2023/10/09 09:28:19;;;;;;;0.08;0.08;;;;;;;27.64;44.91;100741.19;5073115;28;20028;-60
2023/10/09 09:30:50;;;;;;;0.00;0.00;;;;;;;27.21;44.08;100744.19;5070334;28;20487;-61
2023/10/09 09:33:26;;;;;;;0.00;0.00;;;;;;;26.91;45.87;100744.19;5070137;28;20502;-61
2023/10/09 09:35:58;;;;;;;0.05;0.05;;;;;;;26.68;46.67;100751.69;5070087;28;20020;-61
2023/10/09 09:38:27;;;;;;;0.00;0.00;;;;;;;26.63;48.07;100742.13;5072646;28;20025;-60
2023/10/09 09:40:55;;;;;;;0.10;0.10;;;;;;;26.59;47.80;100746.13;5069679;28;20064;-61
2023/10/09 09:43:22;;;;;;;0.10;0.10;;;;;;;26.29;47.36;100732.41;5081219;28;20158;-60
2023/10/09 09:45:50;;;;;;;0.10;0.10;;;;;;;26.27;48.23;100726.22;5089564;28;20052;-61
2023/10/09 09:48:16;;;;;;;0.00;0.00;;;;;;;26.56;49.15;100738.19;5077770;28;20039;-60
2023/10/09 09:50:44;;;;;;;0.03;0.03;;;;;;;27.05;48.34;100741.97;5069641;28;20024;-61
2023/10/09 09:53:19;;;;;;;0.00;0.00;;;;;;;27.44;46.31;100728.47;5072778;28;20028;-60
2023/10/09 09:55:57;;;;;;;0.00;0.00;;;;;;;27.53;44.68;100739.44;5073000;28;20035;-60
2023/10/09 09:58:32;;;;;;;0.00;0.00;;;;;;;27.81;45.46;100745.97;5055496;28;20443;-60
2023/10/09 10:04:13;;;;;;;0.00;0.00;;;;;;;29.34;41.09;100732.97;5051178;28;20044;-60
2023/10/09 10:06:43;;;;;;;0.00;0.00;;;;;;;29.58;41.69;100725.03;5077507;28;20032;-60
2023/10/09 10:09:08;;;;;;;0.00;0.00;;;;;;;29.72;40.79;100727.25;5069460;28;20464;-61
2023/10/09 10:11:51;;;;;;;0.00;0.00;;;;;;;29.72;40.72;100732.75;5080549;28;20047;-60
2023/10/09 10:14:31;;;;;;;0.00;0.00;;;;;;;29.92;39.62;100717.88;5069518;28;20765;-61
2023/10/09 10:17:06;;;;;;;0.00;0.00;;;;;;;30.01;38.97;100703.22;5072721;28;20667;-60
2023/10/09 10:22:47;;;;;;;0.00;0.00;;;;;;;29.77;40.27;100719.44;5079655;28;20040;-60
2023/10/09 10:25:41;;;;;;;0.00;0.00;;;;;;;29.59;40.42;100718.50;5069168;28;20059;-61
2023/10/09 10:28:17;;;;;;;0.00;0.00;;;;;;;29.37;41.22;100717.06;5082442;28;20036;-61
2023/10/09 10:30:46;;;;;;;0.00;0.00;;;;;;;29.07;41.40;100716.47;5069113;28;20056;-61
2023/10/09 10:33:21;;;;;;;0.00;0.00;;;;;;;29.24;42.14;100715.72;5069146;28;20456;-61
2023/10/09 10:35:52;;;;;;;0.00;0.00;;;;;;;29.18;42.09;100716.28;5070502;28;20032;-60
2023/10/09 10:38:42;;;;;;;0.00;0.00;;;;;;;28.99;41.98;100714.47;5068416;28;20047;-61
2023/10/09 10:41:11;;;;;;;0.00;0.00;;;;;;;28.72;41.48;100708.06;5071148;28;20488;-61
2023/10/09 10:46:37;;;;;;;0.00;0.00;;;;;;;28.00;43.15;100711.34;5067458;28;20032;-61
2023/10/09 10:49:16;;;;;;;0.00;0.00;;;;;;;27.79;43.24;100713.28;5067155;28;20048;-60
2023/10/09 10:51:47;;;;;;;0.00;0.00;;;;;;;27.73;42.59;100711.13;5067251;28;20153;-60
2023/10/09 10:56:59;;;;;;;0.00;0.00;;;;;;;27.67;43.91;100702.63;5087179;28;20501;-60
2023/10/09 10:59:26;;;;;;;0.00;0.00;;;;;;;27.78;43.51;100695.16;5088319;28;20408;-61
2023/10/09 11:07:00;;;;;;;0.00;0.00;;;;;;;27.80;44.22;100682.22;5089344;28;20039;-61
2023/10/09 11:09:35;;;;;;;0.00;0.00;;;;;;;27.85;43.89;100681.78;5089413;28;20051;-60
2023/10/09 11:12:23;;;;;;;0.00;0.00;;;;;;;27.99;43.76;100681.38;5073277;28;20060;-61
2023/10/09 11:18:16;;;;;;;0.00;0.00;;;;;;;28.65;43.64;100672.19;5023974;28;20037;-61
2023/10/09 11:20:56;;;;;;;0.00;0.00;;;;;;;28.57;42.09;100674.81;5024969;28;20405;-60
2023/10/09 11:26:25;;;;;;;0.00;0.00;;;;;;;28.47;42.56;100663.00;5068592;28;20134;-60
2023/10/09 11:31:57;;;;;;;0.00;0.00;;;;;;;28.05;43.54;100668.00;5068526;28;20025;-60
2023/10/09 11:34:29;;;;;;;0.00;0.00;;;;;;;27.85;44.07;100674.44;5068563;28;20852;-60
2023/10/09 11:37:02;;;;;;;0.00;0.00;;;;;;;27.67;44.90;100670.69;5071865;28;20028;-60
2023/10/09 11:39:50;;;;;;;0.00;0.00;;;;;;;27.79;44.74;100669.53;5087429;28;20494;-61
2023/10/09 11:42:35;;;;;;;0.00;0.00;;;;;;;27.85;44.35;100655.28;5067143;28;20020;-61
2023/10/09 11:45:19;;;;;;;0.00;0.00;;;;;;;27.92;44.66;100664.69;5086143;28;20031;-60
2023/10/09 11:47:58;;;;;;;0.00;0.00;;;;;;;27.93;44.45;100662.81;5087207;28;20024;-61
2023/10/09 11:53:33;;;;;;;0.00;0.00;;;;;;;27.42;45.24;100663.03;5082373;28;20024;-61
2023/10/09 11:55:59;;;;;;;0.00;0.00;;;;;;;27.23;45.43;100654.78;5084740;28;20459;-61
2023/10/09 11:58:24;;;;;;;0.00;0.00;;;;;;;27.10;46.05;100654.13;5087941;28;20056;-60
2023/10/09 12:00:57;;;;;;;0.00;0.00;;;;;;;27.09;46.37;100649.69;5084413;28;20063;-60
2023/10/09 12:03:29;;;;;;;0.00;0.00;;;;;;;27.13;45.71;100648.41;5087560;28;20171;-60
2023/10/09 12:06:11;;;;;;;0.10;0.10;;;;;;;27.28;45.48;100647.06;5086568;28;20032;-60
2023/10/09 12:08:38;;;;;;;0.00;0.00;;;;;;;27.52;45.26;100638.44;5074234;28;20384;-60
2023/10/09 12:11:08;;;;;;;0.00;0.00;;;;;;;27.64;45.97;100635.44;5069773;28;20041;-61
2023/10/09 12:13:33;;;;;;;0.00;0.00;;;;;;;27.84;45.82;100631.66;5067896;28;20028;-60
2023/10/09 12:15:59;;;;;;;0.00;0.00;;;;;;;28.26;45.03;100627.63;5067844;28;20055;-60
2023/10/09 12:18:25;;;;;;;0.00;0.00;;;;;;;28.89;42.55;100619.66;5079161;28;20036;-60
2023/10/09 12:20:51;;;;;;;0.00;0.00;;;;;;;29.76;42.45;100601.63;5084173;28;20038;-60
2023/10/09 12:23:18;;;;;;;0.00;0.00;;;;;;;30.56;40.82;100605.88;5087903;28;20044;-60
2023/10/09 12:25:46;;;;;;;0.00;0.00;;;;;;;31.22;41.14;100599.66;5076038;28;20017;-60
2023/10/09 12:28:13;;;;;;;0.00;0.00;;;;;;;31.76;37.98;100599.94;5066341;28;20063;-60
2023/10/09 12:30:41;;;;;;;0.00;0.00;;;;;;;31.84;36.75;100599.09;5067433;28;20161;-60
2023/10/09 12:33:09;;;;;;;0.00;0.00;;;;;;;32.26;36.75;100590.69;5085416;28;20479;-60
2023/10/09 12:35:39;;;;;;;0.00;0.00;;;;;;;32.49;36.89;100588.94;5083920;28;20020;-60
2023/10/09 12:38:09;;;;;;;0.00;0.00;;;;;;;32.85;36.62;100592.94;5065074;28;20016;-60
2023/10/09 12:40:35;;;;;;;0.00;0.00;;;;;;;32.94;34.17;100587.25;5068404;28;20076;-60
2023/10/09 12:43:01;;;;;;;0.00;0.00;;;;;;;32.89;33.99;100588.78;5072628;28;20468;-61
2023/10/09 12:45:27;;;;;;;0.00;0.00;;;;;;;32.97;34.54;100586.88;5076579;28;20117;-60
2023/10/09 12:47:54;;;;;;;0.00;0.00;;;;;;;32.96;34.46;100585.19;5084542;28;20036;-60
2023/10/09 12:50:27;;;;;;;0.00;0.00;;;;;;;32.81;34.58;100592.44;5067040;28;20483;-60
2023/10/09 12:52:56;;;;;;;0.00;0.00;;;;;;;32.74;34.83;100580.41;5072781;28;20111;-61
2023/10/09 12:55:31;;;;;;;0.00;0.00;;;;;;;32.44;34.62;100583.09;5081190;28;20492;-60
2023/10/09 12:58:06;;;;;;;0.00;0.00;;;;;;;32.05;34.81;100577.44;5087353;28;20024;-60
2023/10/09 13:00:43;;;;;;;0.00;0.00;;;;;;;31.74;35.01;100580.03;5086950;28;20052;-60
2023/10/09 13:03:18;;;;;;;0.00;0.00;;;;;;;31.59;35.96;100578.97;5090791;28;20078;-60
2023/10/09 13:05:54;;;;;;;0.00;0.00;;;;;;;31.66;35.33;100576.41;5080916;28;20014;-60
2023/10/09 13:08:34;;;;;;;0.00;0.00;;;;;;;32.11;34.92;100565.72;5072240;28;20032;-60
2023/10/09 13:11:10;;;;;;;0.00;0.00;;;;;;;32.39;33.26;100575.34;5086372;28;20117;-60
2023/10/09 13:13:40;;;;;;;0.00;0.00;;;;;;;32.61;33.42;100574.59;5086945;28;20453;-60
2023/10/09 13:16:20;;;;;;;0.00;0.00;;;;;;;32.65;32.68;100570.47;5085039;28;20032;-61
2023/10/09 13:18:49;;;;;;;0.00;0.00;;;;;;;32.28;34.09;100574.81;5091483;28;20023;-61
2023/10/09 13:21:26;;;;;;;0.00;0.00;;;;;;;31.57;35.29;100563.66;5091304;28;20031;-60
2023/10/09 13:23:54;;;;;;;0.00;0.00;;;;;;;31.03;35.40;100573.31;5086226;28;20023;-61
2023/10/09 13:26:25;;;;;;;0.00;0.00;;;;;;;30.67;37.89;100567.16;5090629;28;20485;-60
2023/10/09 13:28:55;;;;;;;0.00;0.00;;;;;;;30.39;35.85;100568.38;5090413;28;20024;-60
2023/10/09 13:31:25;;;;;;;0.00;0.00;;;;;;;30.08;35.66;100564.38;5087613;28;20835;-60
2023/10/09 13:33:54;;;;;;;0.00;0.00;;;;;;;29.85;37.21;100559.56;5069858;28;20044;-60
2023/10/09 13:36:26;;;;;;;0.00;0.00;;;;;;;29.72;37.17;100551.72;5069810;28;20779;-60
2023/10/09 13:38:53;;;;;;;0.00;0.00;;;;;;;29.79;37.62;100547.31;5069686;28;20109;-60
2023/10/09 13:41:19;;;;;;;0.00;0.00;;;;;;;29.67;39.09;100553.22;5072505;28;20105;-60
2023/10/09 13:43:44;;;;;;;0.00;0.00;;;;;;;29.38;39.31;100547.97;5074620;28;20475;-60
2023/10/09 13:46:17;;;;;;;0.00;0.00;;;;;;;29.06;40.72;100547.59;5076823;28;20368;-60
2023/10/09 13:48:43;;;;;;;0.00;0.00;;;;;;;28.75;40.92;100538.84;5090795;28;20058;-60
2023/10/09 13:51:17;;;;;;;0.00;0.00;;;;;;;28.48;41.24;100536.94;5090383;28;20625;-60
2023/10/09 13:53:47;;;;;;;0.00;0.00;;;;;;;28.31;41.64;100529.53;5086313;28;20020;-60
2023/10/09 13:56:18;;;;;;;0.00;0.00;;;;;;;28.14;42.58;100530.31;5077218;28;20025;-60
2023/10/09 13:58:49;;;;;;;0.00;0.00;;;;;;;28.04;42.53;100520.44;5070448;28;20039;-60
2023/10/09 14:01:27;;;;;;;0.00;0.00;;;;;;;27.92;43.12;100517.00;5070640;28;20040;-60
2023/10/09 14:04:00;;;;;;;0.00;0.00;;;;;;;27.89;43.68;100514.53;5082279;28;20110;-60
2023/10/09 14:06:33;;;;;;;0.00;0.00;;;;;;;27.80;43.59;100507.19;5082870;28;20090;-60
2023/10/09 14:09:05;;;;;;;;;;;;;;;27.87;43.65;100522.03;5089233;28;20046;-60
2023/10/09 14:11:37;;;;;;;0.00;0.00;;;;;;;27.91;44.68;100511.66;5089065;28;19923;-60
2023/10/09 14:14:09;;;;;;;0.00;0.00;;;;;;;27.86;45.01;100513.94;5090116;28;20028;-60
2023/10/09 14:16:42;;;;;;;0.00;0.00;;;;;;;27.83;46.67;100517.84;5056556;28;20037;-60
2023/10/09 14:19:12;;;;;;;;;;;;;;;27.85;47.99;100515.81;5049821;28;20059;-60
2023/10/09 14:21:40;;;;;;;0.00;0.00;;;;;;;27.77;48.22;100515.72;5050919;28;19959;-60
2023/10/09 14:24:15;;;;;;;0.00;0.00;;;;;;;27.68;48.07;100519.31;5062378;28;20120;-60
2023/10/09 14:26:41;;;;;;;0.00;0.00;;;;;;;27.57;47.08;100516.75;5049329;28;20078;-60
2023/10/09 14:29:08;;;;;;;0.00;0.00;;;;;;;27.43;47.50;100508.13;5030704;28;20032;-60
2023/10/09 14:31:38;;;;;;;0.00;0.00;;;;;;;27.36;48.03;100506.97;5065885;28;20028;-60
2023/10/09 14:34:04;;;;;;;0.00;0.00;;;;;;;27.27;48.73;100502.31;5068686;28;20031;-60
2023/10/09 14:36:33;;;;;;;0.00;0.00;;;;;;;27.19;49.01;100500.31;5059734;28;20076;-60
2023/10/09 14:39:00;;;;;;;0.00;0.00;;;;;;;27.13;49.15;100506.38;5049560;28;20024;-60
2023/10/09 14:41:27;;;;;;;0.00;0.00;;;;;;;27.11;49.80;100502.91;5049611;28;20050;-60